Rio Pico, Argentina
Current Conditions -  °F | °C
As of 5:00 AM on Monday 24 Nov 2014 (Local Time) from SCAP Reporting Station
Broken Clouds Broken Clouds  
Wind Chill: 41°   Ceiling: 4000
Heat Index: 46°   Visibility: NA
Dew Point: 34°   Wind: 13mph
Humidity: 62%   Direction: 220°SW
Pressure: 30.12"   Gusts: NA
Location:  44.2°S, 71.35°W
Report Text: SCAP 240800Z AUTO 22011KT 180V270 //// // BKN040 08/01 Q1020
Loading
Personal Weather Stations






























Interactive Weather Map New forecast layout! Learn more

10-Day Weather Forecast

Advertisements
Track Severe Weather on mobile